createdAt,value
2023-10-27T00:01:04.572Z,25.30
2023-10-27T00:03:33.060Z,25.40
2023-10-27T00:06:01.403Z,25.60
2023-10-27T00:08:29.738Z,25.40
2023-10-27T00:10:59.493Z,25.20
2023-10-27T00:13:27.839Z,25.30
2023-10-27T00:15:56.205Z,25.30
2023-10-27T00:18:24.667Z,25.10
2023-10-27T00:20:53.047Z,24.90
2023-10-27T00:23:23.393Z,25.00
2023-10-27T00:25:52.896Z,25.10
2023-10-27T00:28:22.910Z,25.10
2023-10-27T00:30:51.263Z,24.90
2023-10-27T00:33:19.686Z,24.70
2023-10-27T00:35:52.175Z,24.70
2023-10-27T00:38:20.605Z,24.60
2023-10-27T00:40:49.497Z,24.80
2023-10-27T00:43:18.477Z,25.00
2023-10-27T00:45:50.914Z,25.10
2023-10-27T00:48:20.893Z,25.20
2023-10-27T00:50:49.978Z,25.20
2023-10-27T00:53:24.295Z,25.10
2023-10-27T00:55:53.023Z,25.20
2023-10-27T00:58:22.978Z,25.10
2023-10-27T01:00:57.024Z,25.00
2023-10-27T01:03:25.642Z,24.50
2023-10-27T01:05:53.940Z,24.30
2023-10-27T01:08:22.307Z,24.20
2023-10-27T01:10:51.041Z,24.20
2023-10-27T01:13:19.394Z,24.20
2023-10-27T01:15:47.704Z,24.30
2023-10-27T01:18:17.386Z,24.40
2023-10-27T01:20:45.906Z,24.20
2023-10-27T01:23:15.969Z,24.10
2023-10-27T01:25:44.359Z,23.90
2023-10-27T01:28:12.709Z,24.20
2023-10-27T01:30:41.058Z,24.50
2023-10-27T01:33:09.443Z,24.70
2023-10-27T01:35:37.987Z,24.80
2023-10-27T01:38:06.301Z,24.80
2023-10-27T01:40:36.018Z,24.90
2023-10-27T01:43:04.377Z,24.90
2023-10-27T01:45:32.716Z,24.90
2023-10-27T01:48:01.323Z,24.80
2023-10-27T01:50:29.676Z,24.70
2023-10-27T01:52:58.303Z,24.70
2023-10-27T01:55:26.746Z,24.50
2023-10-27T01:57:56.676Z,24.40
2023-10-27T02:00:25.194Z,24.40
2023-10-27T02:02:53.536Z,23.90
2023-10-27T02:05:21.922Z,23.90
2023-10-27T02:07:50.330Z,24.00
2023-10-27T02:10:18.694Z,23.90
2023-10-27T02:12:47.363Z,23.80
2023-10-27T02:15:17.153Z,23.20
2023-10-27T02:17:45.591Z,22.80
2023-10-27T02:20:14.368Z,22.70
2023-10-27T02:22:43.170Z,22.50
2023-10-27T02:25:11.541Z,22.70
2023-10-27T02:27:42.213Z,22.20
2023-10-27T02:30:11.230Z,22.30
2023-10-27T02:32:40.997Z,22.10
2023-10-27T02:35:09.894Z,21.90
2023-10-27T02:37:38.231Z,22.00
2023-10-27T02:40:07.854Z,22.50
2023-10-27T02:42:39.373Z,23.10
2023-10-27T02:45:09.640Z,23.00
2023-10-27T02:47:38.089Z,22.90
2023-10-27T02:50:08.410Z,23.10
2023-10-27T02:52:36.795Z,23.00
2023-10-27T02:55:05.436Z,22.80
2023-10-27T02:57:33.757Z,23.00
2023-10-27T03:00:03.704Z,23.30
2023-10-27T03:02:32.524Z,23.20
2023-10-27T03:05:03.419Z,23.00
2023-10-27T03:07:33.420Z,22.70
2023-10-27T03:10:04.705Z,22.70
2023-10-27T03:12:33.753Z,23.20
2023-10-27T03:15:02.042Z,23.30
2023-10-27T03:17:31.104Z,23.60
2023-10-27T03:20:01.327Z,23.90
2023-10-27T03:22:30.894Z,24.00
2023-10-27T03:25:00.766Z,23.60
2023-10-27T03:27:29.330Z,23.90
2023-10-27T03:29:57.648Z,24.10
2023-10-27T03:32:25.971Z,24.40
2023-10-27T03:34:54.474Z,24.50
2023-10-27T03:37:23.261Z,24.60
2023-10-27T03:39:52.270Z,24.70
2023-10-27T03:42:21.979Z,24.70
2023-10-27T03:44:50.338Z,24.90
2023-10-27T03:47:18.796Z,24.80
2023-10-27T03:49:47.158Z,24.80
2023-10-27T03:52:15.610Z,24.60
2023-10-27T03:54:44.508Z,24.30
2023-10-27T03:57:12.824Z,23.90
2023-10-27T03:59:42.518Z,24.00
2023-10-27T04:02:11.384Z,24.40
2023-10-27T04:04:41.056Z,24.50
2023-10-27T04:07:09.513Z,24.60
2023-10-27T04:09:37.953Z,24.70
2023-10-27T04:12:08.008Z,24.50
2023-10-27T04:14:48.498Z,24.30
2023-10-27T04:17:17.027Z,24.50
2023-10-27T04:19:45.576Z,24.40
2023-10-27T04:22:15.876Z,24.40
2023-10-27T04:24:44.461Z,24.50
2023-10-27T04:27:12.748Z,24.30
2023-10-27T04:29:41.138Z,24.40
2023-10-27T04:32:11.014Z,24.30
2023-10-27T04:34:40.038Z,24.30
2023-10-27T04:37:08.416Z,24.20
2023-10-27T04:39:36.768Z,24.10
2023-10-27T04:42:08.687Z,24.20
2023-10-27T04:44:37.924Z,24.30
2023-10-27T04:47:06.479Z,24.40
2023-10-27T04:49:36.792Z,24.10
2023-10-27T04:52:06.948Z,23.70
2023-10-27T04:54:36.169Z,24.10
2023-10-27T04:57:05.401Z,24.40
2023-10-27T04:59:34.713Z,24.50
2023-10-27T05:02:03.620Z,24.70
2023-10-27T05:04:32.063Z,24.70
2023-10-27T05:07:01.792Z,24.80
2023-10-27T05:09:30.959Z,24.70
2023-10-27T05:11:59.353Z,24.60
2023-10-27T05:14:27.768Z,24.60
2023-10-27T05:16:56.134Z,24.80
2023-10-27T05:19:25.173Z,24.90
2023-10-27T05:21:53.573Z,24.60
2023-10-27T05:24:23.263Z,24.50
2023-10-27T05:26:51.822Z,24.70
2023-10-27T05:29:20.222Z,24.80
2023-10-27T05:31:48.751Z,24.40
2023-10-27T05:34:18.229Z,24.30
2023-10-27T05:36:46.747Z,24.30
2023-10-27T05:39:18.333Z,24.30
2023-10-27T05:41:48.655Z,24.40
2023-10-27T05:44:17.237Z,24.50
2023-10-27T05:46:45.580Z,24.50
2023-10-27T05:49:14.025Z,24.60
2023-10-27T05:51:42.385Z,24.60
2023-10-27T05:54:10.748Z,24.80
2023-10-27T05:56:39.128Z,24.70
2023-10-27T05:59:08.883Z,24.80
2023-10-27T06:01:37.242Z,24.90
2023-10-27T06:04:06.412Z,24.90
2023-10-27T06:06:34.774Z,25.10
2023-10-27T06:09:03.401Z,25.00
2023-10-27T06:11:31.776Z,25.10
2023-10-27T06:14:00.408Z,24.90
2023-10-27T06:16:31.427Z,25.10
2023-10-27T06:19:01.050Z,25.10
2023-10-27T06:21:29.653Z,25.10
2023-10-27T06:23:57.969Z,24.90
2023-10-27T06:26:26.487Z,24.90
2023-10-27T06:28:54.989Z,24.90
2023-10-27T06:31:25.226Z,25.20
2023-10-27T06:33:55.354Z,25.20
2023-10-27T06:36:23.925Z,25.30
2023-10-27T06:38:52.261Z,25.40
2023-10-27T06:41:20.620Z,25.40
2023-10-27T06:43:50.343Z,25.50
2023-10-27T06:46:18.656Z,25.70
2023-10-27T06:48:47.121Z,25.80
2023-10-27T06:51:16.833Z,25.80
2023-10-27T06:53:48.291Z,25.60
2023-10-27T06:56:16.960Z,25.50
2023-10-27T06:58:45.677Z,25.50
2023-10-27T07:01:14.344Z,25.60
2023-10-27T07:03:43.008Z,25.80
2023-10-27T07:06:11.873Z,25.80
2023-10-27T07:08:41.621Z,25.90
2023-10-27T07:11:10.531Z,26.00
2023-10-27T07:13:39.306Z,26.00
2023-10-27T07:16:08.134Z,25.90
2023-10-27T07:18:36.622Z,25.80
2023-10-27T07:21:07.819Z,25.80
2023-10-27T07:23:37.408Z,25.80
2023-10-27T07:26:14.999Z,25.80
2023-10-27T07:28:43.775Z,25.60
2023-10-27T07:31:12.312Z,25.80
2023-10-27T07:33:41.015Z,25.90
2023-10-27T07:36:11.102Z,25.90
2023-10-27T07:38:39.493Z,25.80
2023-10-27T07:41:07.869Z,25.80
2023-10-27T07:43:38.348Z,25.80
2023-10-27T07:46:06.830Z,25.60
2023-10-27T07:48:35.318Z,25.50
2023-10-27T07:51:06.247Z,25.40
2023-10-27T07:53:34.597Z,25.30
2023-10-27T07:56:04.452Z,25.20
2023-10-27T07:58:32.896Z,25.10
2023-10-27T08:01:02.843Z,25.10
2023-10-27T08:03:31.387Z,25.20
2023-10-27T08:05:59.816Z,25.30
2023-10-27T08:08:28.173Z,25.40
2023-10-27T08:10:56.552Z,25.60
2023-10-27T08:13:28.009Z,25.60
2023-10-27T08:15:56.578Z,25.60
2023-10-27T08:18:26.328Z,25.80
2023-10-27T08:20:55.455Z,25.90
2023-10-27T08:23:26.672Z,26.10
2023-10-27T08:25:55.225Z,26.10
2023-10-27T08:28:26.298Z,26.10
2023-10-27T08:30:54.707Z,26.10
2023-10-27T08:33:23.130Z,26.10
2023-10-27T08:35:52.909Z,26.20
2023-10-27T08:38:21.291Z,26.20
2023-10-27T08:40:50.504Z,26.20
2023-10-27T08:43:41.063Z,26.40
2023-10-27T08:46:10.229Z,26.40
2023-10-27T08:48:38.648Z,26.40
2023-10-27T08:51:11.467Z,26.40
2023-10-27T08:53:43.827Z,26.40
2023-10-27T08:56:13.678Z,26.50
2023-10-27T08:58:44.958Z,26.40
2023-10-27T09:01:13.430Z,26.30
2023-10-27T09:03:41.849Z,25.90
2023-10-27T09:06:11.592Z,25.90
2023-10-27T09:08:39.965Z,25.80
2023-10-27T09:11:08.430Z,25.70
2023-10-27T09:13:40.971Z,25.70
2023-10-27T09:16:10.280Z,25.80
2023-10-27T09:18:39.323Z,25.90
2023-10-27T09:21:07.745Z,25.80
2023-10-27T09:23:47.543Z,25.80
2023-10-27T09:26:17.827Z,25.80
2023-10-27T09:28:46.280Z,25.90
2023-10-27T09:31:14.618Z,26.00
2023-10-27T09:33:43.238Z,26.10
2023-10-27T09:36:14.128Z,26.20
2023-10-27T09:38:44.760Z,26.40
2023-10-27T09:41:16.376Z,26.30
2023-10-27T09:43:45.213Z,26.30
2023-10-27T09:46:14.990Z,26.30
2023-10-27T09:48:47.672Z,26.30
2023-10-27T09:51:19.748Z,26.30
2023-10-27T09:53:50.108Z,26.20
2023-10-27T09:56:20.547Z,26.30
2023-10-27T09:58:49.506Z,26.10
2023-10-27T10:01:18.347Z,26.20
2023-10-27T10:03:46.757Z,26.30
2023-10-27T10:06:17.158Z,26.30
2023-10-27T10:09:10.954Z,26.40
2023-10-27T10:11:56.483Z,26.40
2023-10-27T10:14:52.010Z,26.40
2023-10-27T10:17:40.150Z,26.40
2023-10-27T10:20:10.633Z,26.40
2023-10-27T10:22:58.051Z,26.40
2023-10-27T10:25:29.749Z,26.30
2023-10-27T10:28:25.053Z,26.30
2023-10-27T10:31:33.678Z,26.20
2023-10-27T10:34:12.446Z,26.10
2023-10-27T10:36:44.784Z,26.10
2023-10-27T10:39:13.147Z,26.10
2023-10-27T10:42:04.644Z,25.90
2023-10-27T10:44:34.408Z,25.80
2023-10-27T10:47:19.500Z,25.50
2023-10-27T10:49:48.006Z,25.30
2023-10-27T10:52:22.865Z,25.20
2023-10-27T10:54:53.140Z,25.00
2023-10-27T10:57:22.232Z,24.90
2023-10-27T11:00:00.968Z,24.50
2023-10-27T11:02:29.288Z,24.30
2023-10-27T11:04:58.740Z,24.20
2023-10-27T11:07:29.825Z,24.00
2023-10-27T11:10:22.395Z,23.80
2023-10-27T11:12:51.324Z,23.80
2023-10-27T11:15:49.863Z,23.80
2023-10-27T11:18:19.753Z,23.70
2023-10-27T11:20:49.232Z,23.60
2023-10-27T11:23:19.154Z,23.40
2023-10-27T11:25:47.797Z,23.40
2023-10-27T11:28:23.127Z,23.30
2023-10-27T11:31:03.768Z,23.20
2023-10-27T11:33:32.322Z,23.10
2023-10-27T11:36:00.991Z,23.00
2023-10-27T11:38:33.634Z,23.00
2023-10-27T11:41:13.931Z,23.10
2023-10-27T11:43:45.646Z,23.20
2023-10-27T11:46:16.864Z,23.60
2023-10-27T11:48:46.682Z,23.60
2023-10-27T11:51:15.771Z,23.60
2023-10-27T11:53:45.104Z,23.30
2023-10-27T11:56:13.569Z,23.50
2023-10-27T11:58:42.423Z,23.40
2023-10-27T12:01:11.286Z,23.30
2023-10-27T12:03:41.311Z,23.20
2023-10-27T12:06:09.723Z,23.20
2023-10-27T12:08:38.247Z,23.30
2023-10-27T12:11:06.625Z,23.20
2023-10-27T12:13:35.645Z,23.20
2023-10-27T12:16:04.478Z,23.10
2023-10-27T12:18:34.019Z,22.90
2023-10-27T12:21:06.394Z,22.90
2023-10-27T12:23:34.732Z,22.90
2023-10-27T12:26:04.117Z,23.00
2023-10-27T12:28:32.441Z,22.90
2023-10-27T12:31:01.779Z,23.20
2023-10-27T12:33:31.368Z,23.60
2023-10-27T12:36:06.633Z,23.40
2023-10-27T12:38:36.569Z,23.20
2023-10-27T12:41:05.620Z,23.30
2023-10-27T12:43:34.087Z,23.10
2023-10-27T12:46:05.009Z,23.20
2023-10-27T12:48:34.599Z,23.30
2023-10-27T12:51:04.163Z,23.40
2023-10-27T12:53:32.750Z,23.30
2023-10-27T12:56:02.446Z,23.00
2023-10-27T12:58:31.172Z,23.10
2023-10-27T13:01:00.850Z,23.10
2023-10-27T13:03:30.356Z,23.00
2023-10-27T13:05:58.723Z,22.90
2023-10-27T13:08:27.070Z,22.90
2023-10-27T13:10:55.450Z,23.00
2023-10-27T13:13:25.658Z,23.20
2023-10-27T13:15:54.060Z,23.00
2023-10-27T13:18:22.433Z,23.20
2023-10-27T13:20:51.154Z,23.00
2023-10-27T13:23:19.484Z,22.90
2023-10-27T13:25:47.895Z,22.90
2023-10-27T13:28:16.378Z,23.10
2023-10-27T13:30:49.183Z,23.50
2023-10-27T13:33:17.610Z,23.80
2023-10-27T13:35:46.980Z,23.90
2023-10-27T13:38:18.337Z,24.00
2023-10-27T13:40:46.874Z,24.20
2023-10-27T13:43:16.260Z,24.40
2023-10-27T13:45:45.010Z,24.50
2023-10-27T13:48:14.787Z,24.70
2023-10-27T13:50:44.807Z,24.80
2023-10-27T13:53:13.190Z,24.90
2023-10-27T13:55:47.911Z,25.00
2023-10-27T13:58:16.556Z,25.10
2023-10-27T14:00:45.842Z,25.20
2023-10-27T14:03:15.668Z,25.30
2023-10-27T14:08:18.552Z,25.40
2023-10-27T14:10:46.964Z,25.50
2023-10-27T14:13:15.472Z,25.70
2023-10-27T14:15:43.969Z,25.70
2023-10-27T14:18:12.350Z,25.70
2023-10-27T14:20:43.105Z,25.70
2023-10-27T14:23:11.479Z,25.30
2023-10-27T14:25:39.963Z,25.40
2023-10-27T14:28:08.436Z,25.30
2023-10-27T14:30:39.319Z,25.30
2023-10-27T14:33:09.233Z,25.20
2023-10-27T14:35:37.772Z,25.40
2023-10-27T14:38:07.501Z,25.60
2023-10-27T14:40:36.535Z,25.30
2023-10-27T14:43:04.969Z,25.30
2023-10-27T14:45:33.372Z,25.40
2023-10-27T14:48:02.014Z,25.30
2023-10-27T14:50:30.551Z,25.40
2023-10-27T14:52:59.781Z,24.60
2023-10-27T14:55:29.685Z,24.70
2023-10-27T14:57:58.039Z,24.50
2023-10-27T15:00:29.624Z,24.60
2023-10-27T15:02:58.002Z,24.50
2023-10-27T15:05:26.363Z,24.30
2023-10-27T15:07:55.037Z,24.50
2023-10-27T15:10:24.416Z,23.90
2023-10-27T15:12:54.247Z,24.30
2023-10-27T15:15:25.104Z,24.10
2023-10-27T15:17:53.527Z,24.20
2023-10-27T15:20:21.841Z,24.20
2023-10-27T15:22:51.472Z,24.00
2023-10-27T15:25:22.596Z,23.30
2023-10-27T15:27:50.970Z,23.40
2023-10-27T15:30:20.939Z,23.50
2023-10-27T15:32:52.576Z,23.10
2023-10-27T15:35:21.333Z,22.50
2023-10-27T15:37:50.914Z,22.40
2023-10-27T15:40:20.453Z,22.30
2023-10-27T15:42:48.844Z,22.30
2023-10-27T15:45:18.146Z,22.60
2023-10-27T15:47:49.806Z,22.30
2023-10-27T15:50:18.372Z,22.20
2023-10-27T15:52:46.811Z,21.80
2023-10-27T15:55:15.240Z,21.50
2023-10-27T15:57:43.871Z,21.70
2023-10-27T16:00:13.816Z,21.50
2023-10-27T16:02:42.441Z,21.20
2023-10-27T16:05:12.560Z,21.40
2023-10-27T16:07:40.920Z,21.60
2023-10-27T16:10:11.530Z,21.40
2023-10-27T16:12:39.860Z,20.90
2023-10-27T16:15:08.900Z,20.80
2023-10-27T16:17:37.326Z,20.80
2023-10-27T16:20:07.540Z,21.40
2023-10-27T16:22:38.618Z,21.20
2023-10-27T16:25:09.616Z,21.30
2023-10-27T16:27:38.678Z,21.30
2023-10-27T16:30:09.338Z,21.20
2023-10-27T16:32:38.557Z,21.30
2023-10-27T16:35:07.956Z,20.80
2023-10-27T16:37:37.914Z,20.60
2023-10-27T16:40:09.348Z,20.80
2023-10-27T16:42:38.661Z,20.30
2023-10-27T16:45:07.705Z,20.50
2023-10-27T16:47:38.224Z,20.60
2023-10-27T16:50:10.769Z,20.60
2023-10-27T16:52:40.720Z,20.50
2023-10-27T16:55:09.665Z,20.60
2023-10-27T16:57:38.592Z,20.70
2023-10-27T17:00:08.335Z,20.70
2023-10-27T17:02:37.099Z,20.60
2023-10-27T17:05:09.328Z,20.80
2023-10-27T17:07:37.783Z,20.80
2023-10-27T17:10:08.651Z,20.70
2023-10-27T17:12:38.054Z,20.90
2023-10-27T17:15:07.719Z,20.70
2023-10-27T17:17:36.065Z,20.90
2023-10-27T17:20:17.066Z,20.90
2023-10-27T17:22:47.555Z,21.00
2023-10-27T17:25:19.070Z,21.00
2023-10-27T17:27:47.443Z,21.20
2023-10-27T17:30:16.688Z,21.80
2023-10-27T17:32:49.393Z,21.30
2023-10-27T17:35:18.104Z,20.80
2023-10-27T17:37:46.493Z,20.70
2023-10-27T17:40:15.344Z,20.80
2023-10-27T17:42:47.625Z,20.80
2023-10-27T17:45:18.745Z,20.60
2023-10-27T17:47:49.685Z,21.30
2023-10-27T17:50:18.741Z,21.70
2023-10-27T17:52:47.965Z,21.00
2023-10-27T17:55:18.708Z,21.10
2023-10-27T17:57:48.423Z,21.00
2023-10-27T18:00:17.640Z,20.60
2023-10-27T18:02:46.045Z,20.30
2023-10-27T18:05:14.989Z,20.30
2023-10-27T18:07:43.382Z,20.70
2023-10-27T18:10:10.867Z,20.80
2023-10-27T18:12:39.439Z,21.50
2023-10-27T18:15:10.778Z,21.40
2023-10-27T18:17:41.653Z,21.50
2023-10-27T18:20:13.865Z,21.00
2023-10-27T18:22:43.654Z,20.70
2023-10-27T18:25:12.647Z,20.80
2023-10-27T18:27:41.566Z,21.60
2023-10-27T18:30:12.860Z,21.70
2023-10-27T18:32:41.913Z,22.20
2023-10-27T18:35:09.872Z,22.00
2023-10-27T18:37:38.256Z,22.30
2023-10-27T18:40:09.521Z,22.90
2023-10-27T18:42:38.906Z,22.60
2023-10-27T18:45:08.297Z,23.00
2023-10-27T18:47:38.199Z,23.30
2023-10-27T18:50:08.677Z,23.50
2023-10-27T18:52:37.133Z,23.50
2023-10-27T18:55:07.464Z,23.50
2023-10-27T18:57:38.576Z,23.10
2023-10-27T19:00:10.828Z,23.60
2023-10-27T19:02:40.981Z,24.00
2023-10-27T19:05:10.887Z,23.30
2023-10-27T19:07:42.863Z,23.00
2023-10-27T19:10:12.279Z,22.80
2023-10-27T19:12:42.339Z,22.70
2023-10-27T19:15:13.181Z,22.10
2023-10-27T19:17:44.763Z,22.20
2023-10-27T19:20:14.548Z,22.10
2023-10-27T19:22:44.404Z,22.10
2023-10-27T19:25:12.788Z,22.30
2023-10-27T19:27:41.663Z,22.50
2023-10-27T19:30:13.849Z,22.80
2023-10-27T19:32:44.529Z,23.00
2023-10-27T19:35:16.542Z,23.20
2023-10-27T19:37:47.397Z,23.60
2023-10-27T19:40:16.233Z,23.80
2023-10-27T19:42:47.551Z,23.60
2023-10-27T19:45:18.979Z,23.10
2023-10-27T19:47:49.111Z,23.60
2023-10-27T19:50:18.082Z,23.60
2023-10-27T19:52:53.232Z,23.20
2023-10-27T19:55:24.350Z,23.40
2023-10-27T19:57:52.948Z,23.90
2023-10-27T20:00:30.751Z,23.90
2023-10-27T20:03:05.935Z,23.90
2023-10-27T20:05:41.614Z,23.90
2023-10-27T20:08:13.698Z,23.70
2023-10-27T20:10:47.893Z,23.80
2023-10-27T20:13:19.065Z,23.90
2023-10-27T20:15:49.240Z,23.90
2023-10-27T20:18:19.018Z,24.00
2023-10-27T20:20:48.217Z,24.20
2023-10-27T20:23:16.895Z,24.10
2023-10-27T20:25:47.177Z,24.10
2023-10-27T20:28:25.612Z,24.40
2023-10-27T20:30:54.293Z,24.50
2023-10-27T20:33:24.409Z,24.20
2023-10-27T20:35:52.823Z,23.90
2023-10-27T20:38:21.705Z,24.40
2023-10-27T20:40:50.220Z,24.40
2023-10-27T20:43:18.674Z,24.00
2023-10-27T20:45:48.023Z,24.20
2023-10-27T20:48:17.868Z,24.20
2023-10-27T20:50:48.337Z,23.80
2023-10-27T20:53:16.734Z,24.10
2023-10-27T20:55:45.312Z,24.20
2023-10-27T20:58:13.701Z,24.40
2023-10-27T21:00:42.179Z,24.40
2023-10-27T21:03:10.603Z,24.40
2023-10-27T21:05:39.100Z,24.20
2023-10-27T21:08:09.350Z,24.20
2023-10-27T21:10:42.768Z,23.80
2023-10-27T21:13:12.230Z,23.60
2023-10-27T21:15:42.040Z,23.30
2023-10-27T21:18:11.114Z,23.20
2023-10-27T21:20:40.859Z,23.10
2023-10-27T21:23:10.780Z,23.10
2023-10-27T21:25:39.265Z,22.90
2023-10-27T21:28:08.935Z,22.80
2023-10-27T21:30:37.215Z,22.90
2023-10-27T21:33:05.861Z,23.20
2023-10-27T21:35:34.487Z,23.30
2023-10-27T21:38:04.731Z,23.60
2023-10-27T21:40:34.864Z,23.50
2023-10-27T21:43:03.449Z,23.10
2023-10-27T21:45:33.229Z,23.00
2023-10-27T21:48:02.841Z,22.50
2023-10-27T21:50:32.888Z,23.00
2023-10-27T21:53:01.636Z,22.30
2023-10-27T21:55:30.139Z,22.50
2023-10-27T21:57:59.924Z,22.60
2023-10-27T22:00:32.760Z,22.50
2023-10-27T22:03:01.920Z,22.00
2023-10-27T22:05:31.632Z,21.80
2023-10-27T22:08:00.309Z,21.50
2023-10-27T22:10:28.762Z,20.90
2023-10-27T22:12:57.128Z,20.60
2023-10-27T22:15:27.384Z,20.60
2023-10-27T22:17:58.607Z,20.70
2023-10-27T22:20:28.404Z,20.90
2023-10-27T22:22:57.827Z,20.90
2023-10-27T22:25:28.297Z,20.80
2023-10-27T22:28:09.511Z,21.00
2023-10-27T22:30:46.198Z,21.00
2023-10-27T22:33:15.398Z,20.70
2023-10-27T22:35:44.014Z,20.90
2023-10-27T22:38:12.428Z,20.60
2023-10-27T22:40:40.976Z,20.70
2023-10-27T22:43:10.257Z,20.60
2023-10-27T22:45:40.397Z,20.20
2023-10-27T22:48:10.586Z,20.00
2023-10-27T22:50:39.001Z,19.70
2023-10-27T22:53:07.503Z,19.80
2023-10-27T22:55:36.222Z,19.40
2023-10-27T22:58:05.764Z,19.30
2023-10-27T23:00:34.202Z,19.60
2023-10-27T23:03:03.287Z,20.00
2023-10-27T23:05:36.208Z,20.60
2023-10-27T23:08:06.654Z,20.70
2023-10-27T23:10:35.166Z,20.50
2023-10-27T23:13:06.219Z,20.30
2023-10-27T23:15:37.179Z,20.80
2023-10-27T23:18:06.803Z,20.50
2023-10-27T23:20:37.560Z,20.10
2023-10-27T23:23:06.792Z,20.00
2023-10-27T23:25:35.257Z,19.70
2023-10-27T23:28:04.289Z,19.90
2023-10-27T23:30:32.713Z,20.20
2023-10-27T23:33:01.330Z,20.00
2023-10-27T23:35:29.673Z,20.00
2023-10-27T23:37:59.717Z,20.20
2023-10-27T23:40:28.148Z,20.00
2023-10-27T23:42:56.434Z,20.20
2023-10-27T23:45:26.320Z,19.80
2023-10-27T23:47:55.843Z,20.10
2023-10-27T23:50:24.533Z,20.30
2023-10-27T23:52:52.866Z,20.80
2023-10-27T23:55:22.638Z,20.50
2023-10-27T23:57:50.983Z,20.90
